Hovedside
METAR-TAF:

METAR-TAF

Lufthavner :

Sveg lufthavn

Sveg, Sverige

breddegrad: 62-02-52N, lengdegrad: 014-25-22E, høyde over havet: 359 m

Gjeldene værobservasjon

Denne rapporten ble laget for 41 minutter siden, klokken 13:50 UTC
Vind 14 kt fra Sør-sørøst, skiftende mellom Øst-sørøst og Sør
Temperatur 26°C
Luftfuktighet 34%
Trykk 1014 hPa
Sikt 10 km eller mer
Få skyer i en høyde av 7800 ft
Brutte skyer i en høyde av 9800 ft

METAR: ESND 181350Z 15014KT 110V180 9999 FEW078 BKN098 26/09 Q1014

Tid: 16:31 (14:31 UTC)


TAF: fraværende

Værobservasjoner og værvarsel for over 4000 flyplasser (METAR- og TAF-rapporter).

Tilgjengelige stasjoner er representert av de røde og gule prikkene på kartet.

Hold musepekeren over prikken for å se navnet på stasjonen.

Klikk så for å se værobservasjoner og -varsler.

For å forandre kartet kan du klikke på den grønne knappen med svart kryss for å zoome inn, på den grønne knappen med strek for å zoome ut, eller på de grønne pilene for å se tilstøtende kart.


METAR-TAF: